Terminal Aerodrome Forecast
Issued by NWS Blacksburg, VA

Current Version | Previous Version | Graphics & Text | Print | Product List | Glossary On
Versions: 1 2 3 4 5 6 7 8 9 10 11 12 13 14 15 16 17 18 19 20 21 22 23 24 25 26 27 28 29 30 31 32
000
FTUS41 KRNK 042336
TAFBLF
TAF
KBLF 042336Z 0500/0524 05003KT P6SM FEW060 BKN250
     FM050600 10005KT 6SM BR BKN025
     FM051300 11005KT P6SM BKN015
     FM051700 11005KT P6SM BKN035=

USA.gov is the U.S. government's official web portal to all federal, state and local government web resources and services.